METAR Data
IDs: Format: Raw Decoded Include TAF

Data at: 1731 UTC 21 Sep 2018

KGOP 211715Z AUTO 18010G16KT 10SM SCT021 SCT026 SCT031 28/23 A2999 RMK AO2
KGOP 211655Z AUTO 16009KT 10SM SCT020 SCT026 SCT031 28/23 A2999 RMK AO2
KGOP 211635Z AUTO 17009G17KT 10SM SCT019 SCT027 28/23 A2999 RMK AO2
KGOP 211615Z AUTO 17009G14KT 10SM SCT018 SCT025 SCT033 28/23 A2999 RMK AO2
KGOP 211555Z AUTO 16010KT 10SM FEW013 FEW020 28/24 A2999 RMK AO2
KGOP 211535Z AUTO 15007G12KT 10SM SCT013 BKN017 BKN023 27/24 A2999 RMK AO2
KGOP 211515Z AUTO 15007KT 10SM SCT012 SCT017 SCT027 26/24 A2999 RMK AO2
KGOP 211455Z AUTO 14008KT 10SM FEW015 FEW025 26/24 A2998 RMK AO2
KGOP 211435Z AUTO 15008KT 10SM FEW028 26/24 A2998 RMK AO2
KGOP 211415Z AUTO 15006KT 10SM FEW016 FEW020 FEW028 26/24 A2998 RMK AO2
KGOP 211355Z AUTO 15007KT 10SM FEW010 SCT016 SCT028 26/25 A2998 RMK AO2
KGOP 211335Z AUTO 15006KT 10SM SCT010 BKN015 BKN019 25/25 A2998 RMK AO2
KGOP 211315Z AUTO 14004KT 9SM BKN013 25/25 A2997 RMK AO2
KGOP 211255Z AUTO 00000KT 9SM BKN011 BKN018 25/25 A2996 RMK AO2
KGOP 211235Z AUTO 14004KT 10SM BKN012 BKN017 24/25 A2995 RMK AO2
KGOP 211215Z AUTO 00000KT 10SM BKN014 BKN019 24/24 A2996 RMK AO2
KGOP 211155Z AUTO 13004KT 10SM FEW008 SCT016 24/24 A2995 RMK AO2
KGOP 211135Z AUTO 13004KT 10SM FEW009 24/24 A2995 RMK AO2
KGOP 211115Z AUTO 14003KT 9SM FEW006 FEW010 FEW015 24/24 A2995 RMK AO2
KGOP 211055Z AUTO 14003KT 7SM SCT007 BKN014 24/24 A2995 RMK AO2
KGOP 211035Z AUTO 12004KT 5SM BR FEW005 SCT010 BKN015 24/24 A2994 RMK AO2
KGOP 211015Z AUTO 00000KT 5SM BR SCT005 SCT008 BKN014 24/24 A2994 RMK AO2
KGOP 210955Z AUTO 00000KT 6SM BR SCT006 BKN010 24/24 A2995 RMK AO2
KGOP 210935Z AUTO 00000KT 6SM BR SCT008 SCT012 SCT017 24/24 A2995 RMK AO2
KGOP 210915Z AUTO VRB04KT 6SM BR SCT006 SCT012 SCT017 24/24 A2995 RMK AO2
KGOP 210855Z AUTO 00000KT 6SM BR SCT005 24/24 A2995 RMK AO2
KGOP 210835Z AUTO 13005KT 6SM -RA BKN005 24/24 A2995 RMK AO2
KGOP 210815Z AUTO 14006KT 8SM -DZ BKN005 24/24 A2996 RMK AO2
KGOP 210755Z AUTO 15006KT 6SM -DZ BKN005 BKN010 24/24 A2995 RMK AO2
KGOP 210735Z AUTO 14006KT 9SM BKN005 24/24 A2995 RMK AO2
KGOP 210715Z AUTO 15007KT 10SM BKN004 23/23 A2996 RMK AO2
KGOP 210655Z AUTO 14006KT 10SM BKN004 23/23 A2996 RMK AO2
KGOP 210635Z AUTO 15007KT 10SM BKN005 23/23 A2995 RMK AO2
KGOP 210615Z AUTO 14005KT 10SM BKN006 23/23 A2996 RMK AO2
KGOP 210555Z AUTO 14004KT 10SM BKN007 BKN012 BKN020 23/23 A2997 RMK AO2
KGOP 210535Z AUTO 13003KT 10SM 23/23 A2997 RMK AO2
KGOP 210515Z AUTO 00000KT 10SM BKN009 22/23 A2998 RMK AO2
KGOP 210455Z AUTO 13004KT 10SM SCT010 SCT013 22/22 A2998 RMK AO2
KGOP 210435Z AUTO 13004KT 10SM SCT012 SCT042 22/22 A2998 RMK AO2
KGOP 210415Z AUTO 13003KT 10SM FEW042 22/22 A2998 RMK AO2
KGOP 210355Z AUTO 00000KT 10SM CLR 22/22 A2998 RMK AO2
KGOP 210335Z AUTO 00000KT 10SM CLR 22/22 A2998 RMK AO2
KGOP 210315Z AUTO 00000KT 10SM FEW035 FEW048 22/22 A2997 RMK AO2
KGOP 210250Z AUTO 00000KT 10SM FEW049 FEW065 22/22 A2998 RMK AO2
KGOP 210235Z AUTO 12004KT 10SM FEW001 FEW033 FEW050 22/22 A2998 RMK AO2
KGOP 210215Z AUTO 11004KT 10SM BKN002 BKN048 22/22 A2998 RMK AO2
KGOP 210155Z AUTO 00000KT 10SM BKN002 BKN049 22/22 A2997 RMK AO2
KGOP 210135Z AUTO 00000KT 6SM -DZ BKN003 BKN007 BKN049 22/22 A2997 RMK AO2
KGOP 210115Z AUTO 11005KT 6SM -RA BKN003 BKN008 BKN021 22/22 A2997 RMK AO2
KGOP 210055Z AUTO VRB05G15KT 2 1/2SM -RA SCT002 SCT010 BKN025 22/22 A2997 RMK AO2 P0007
KGOP 210035Z AUTO 15012KT 3SM -DZ FEW002 SCT027 BKN039 23/22 A2996 RMK AO2
KGOP 210015Z AUTO 00000KT 10SM FEW030 FEW040 24/23 A2994 RMK AO2 LTG DSNT E
KGOP 202355Z AUTO 00000KT 10SM CLR 25/24 A2992 RMK AO2
KGOP 202335Z AUTO 10SM CLR 25/24 A2992 RMK AO2
KGOP 202315Z AUTO 00000KT 10SM FEW010 25/24 A2992 RMK AO2
KGOP 202255Z AUTO 00000KT 6SM -DZ CLR 25/24 A2994 RMK AO2 P0003
KGOP 202235Z AUTO 19006KT 2 1/2SM RA FEW014 25/24 A2994 RMK AO2 LTG DSNT SE
KGOP 202215Z AUTO 00000KT 6SM -RA 25/24 A2994 RMK AO2
KGOP 202155Z AUTO 16004KT 8SM -RA CLR 26/23 A2994 RMK AO2 LTG DSNT S P0001
KGOP 202135Z AUTO 00000KT 8SM -RA CLR 26/23 A2993 RMK AO2 LTG DSNT S
KGOP 202115Z AUTO 14007KT 10SM CLR 27/23 A2994 RMK AO2
KGOP 202055Z AUTO 13005KT 10SM CLR 27/23 A2994 RMK AO2 LTG DSNT S AND W
KGOP 202035Z AUTO 13007KT 10SM CLR 26/23 A2993 RMK AO2 LTG DSNT ALQDS
KGOP 202015Z AUTO 13005KT 9SM CLR 24/22 A2993 RMK AO2 LTG DSNT ALQDS
KGOP 201955Z AUTO 12004KT 9SM VCTS RA FEW002 SCT038 BKN065 22/21 A2993 RMK AO2 LTG DSNT ALQDS P0100
KGOP 201935Z AUTO 13009G18KT 1/4SM TSRA BKN001 OVC012 21/21 A2997 RMK AO2
KGOP 201915Z AUTO 14017G33KT 7SM TS FEW011 SCT034 BKN044 29/23 A2996 RMK AO2 LTG DSNT ALQDS
KGOP 201855Z AUTO 17007KT 140V200 7SM FEW033 SCT045 SCT055 30/23 A2995 RMK AO2 LTG DSNT SE AND S P0002
KGOP 201835Z AUTO 14008KT 10SM FEW036 FEW060 FEW070 30/22 A2996 RMK AO2 LTG DSNT SE
KGOP 201815Z AUTO 15009KT 10SM FEW030 SCT035 SCT040 31/22 A2997 RMK AO2 LTG DSNT SE AND S
KGOP 201755Z AUTO 16006KT 10SM FEW035 FEW060 SCT090 29/22 A2998 RMK AO2
KGOP 201735Z AUTO 16006KT 10SM CLR 29/22 A2998 RMK AO2 LTG DSNT SE AND S
KGOP 201715Z AUTO 14006G11KT 10SM CLR 29/22 A3000 RMK AO2
KGOP 201655Z AUTO 16005KT 10SM FEW033 FEW038 28/23 A3001 RMK AO2
KGOP 201635Z AUTO 16007KT 10SM FEW020 FEW028 28/22 A3001 RMK AO2
KGOP 201615Z AUTO 17008KT 10SM FEW019 FEW028 28/22 A3001 RMK AO2
KGOP 201555Z AUTO 16006KT 10SM FEW018 FEW023 FEW120 28/23 A3001 RMK AO2
KGOP 201535Z AUTO 16008KT 10SM FEW016 FEW120 27/23 A3001 RMK AO2
KGOP 201515Z AUTO 15007KT 10SM SCT012 SCT017 27/23 A3001 RMK AO2
KGOP 201455Z AUTO 14006KT 10SM FEW012 26/23 A3000 RMK AO2
KGOP 201435Z AUTO 14005KT 10SM CLR 25/23 A3000 RMK AO2
KGOP 201415Z AUTO 00000KT 10SM CLR 24/23 A2999 RMK AO2
KGOP 201355Z AUTO 00000KT 10SM CLR 24/22 A2999 RMK AO2
KGOP 201335Z AUTO 00000KT 10SM CLR 23/22 A2999 RMK AO2
KGOP 201315Z AUTO 00000KT 10SM CLR 23/22 A2998 RMK AO2
KGOP 201255Z AUTO 00000KT 10SM CLR 23/22 A2998 RMK AO2
KGOP 201235Z AUTO 00000KT 10SM CLR 23/22 A2998 RMK AO2
KGOP 201215Z AUTO 00000KT 10SM CLR 23/22 A2997 RMK AO2
KGOP 201155Z AUTO 00000KT 10SM CLR 23/22 A2996 RMK AO2
KGOP 201135Z AUTO 00000KT 10SM CLR 23/22 A2996 RMK AO2
KGOP 201115Z AUTO 15004KT 10SM CLR 24/22 A2996 RMK AO2
KGOP 201055Z AUTO 16005KT 10SM CLR 24/21 A2996 RMK AO2
KGOP 201035Z AUTO 13004KT 10SM CLR 23/22 A2995 RMK AO2
KGOP 201015Z AUTO 00000KT 10SM CLR 23/21 A2995 RMK AO2
KGOP 200955Z AUTO 00000KT 10SM CLR 24/21 A2995 RMK AO2
KGOP 200935Z AUTO 15003KT 10SM CLR 24/21 A2995 RMK AO2
KGOP 200915Z AUTO 16005KT 10SM CLR 24/21 A2995 RMK AO2
KGOP 200855Z AUTO 16004KT 10SM CLR 24/21 A2996 RMK AO2
KGOP 200835Z AUTO 17006KT 10SM CLR 24/21 A2996 RMK AO2
KGOP 200815Z AUTO 17005KT 10SM CLR 25/21 A2997 RMK AO2
KGOP 200755Z AUTO 17007KT 10SM CLR 25/21 A2997 RMK AO2
KGOP 200735Z AUTO 17007KT 10SM CLR 25/21 A2997 RMK AO2
KGOP 200715Z AUTO 16006KT 10SM CLR 25/21 A2997 RMK AO2
KGOP 200655Z AUTO 14004KT 10SM CLR 24/21 A2997 RMK AO2
KGOP 200635Z AUTO 13006KT 10SM CLR 24/21 A2998 RMK AO2
KGOP 200615Z AUTO 12003KT 10SM CLR 24/21 A2998 RMK AO2
KGOP 200555Z AUTO 11003KT 10SM CLR 24/20 A2998 RMK AO2
KGOP 200535Z AUTO 14003KT 10SM CLR 25/20 A2998 RMK AO2